sensor_id;sensor_type;location;lat;lon;timestamp;temperature;humidity
65582;DHT22;52231;40.090;18.348;2023-08-06T00:00:25;19.10;90.00
65582;DHT22;52231;40.090;18.348;2023-08-06T00:02:54;19.20;90.00
65582;DHT22;52231;40.090;18.348;2023-08-06T00:05:22;19.20;90.00
65582;DHT22;52231;40.090;18.348;2023-08-06T00:07:50;19.20;89.70
65582;DHT22;52231;40.090;18.348;2023-08-06T00:10:18;19.30;89.60
65582;DHT22;52231;40.090;18.348;2023-08-06T00:12:46;19.20;89.40
65582;DHT22;52231;40.090;18.348;2023-08-06T00:15:14;19.30;89.60
65582;DHT22;52231;40.090;18.348;2023-08-06T00:17:42;19.30;89.20
65582;DHT22;52231;40.090;18.348;2023-08-06T00:20:11;19.30;89.20
65582;DHT22;52231;40.090;18.348;2023-08-06T00:22:39;19.40;89.20
65582;DHT22;52231;40.090;18.348;2023-08-06T00:25:07;19.40;89.30
65582;DHT22;52231;40.090;18.348;2023-08-06T00:27:35;19.40;88.90
65582;DHT22;52231;40.090;18.348;2023-08-06T00:30:04;19.30;89.00
65582;DHT22;52231;40.090;18.348;2023-08-06T00:32:32;19.30;88.80
65582;DHT22;52231;40.090;18.348;2023-08-06T00:35:00;19.30;88.90
65582;DHT22;52231;40.090;18.348;2023-08-06T00:37:28;19.30;89.20
65582;DHT22;52231;40.090;18.348;2023-08-06T00:39:56;19.30;89.00
65582;DHT22;52231;40.090;18.348;2023-08-06T00:42:24;19.30;89.00
65582;DHT22;52231;40.090;18.348;2023-08-06T00:44:52;19.30;88.90
65582;DHT22;52231;40.090;18.348;2023-08-06T00:47:20;19.30;88.90
65582;DHT22;52231;40.090;18.348;2023-08-06T00:49:48;19.30;88.90
65582;DHT22;52231;40.090;18.348;2023-08-06T00:52:17;19.30;88.90
65582;DHT22;52231;40.090;18.348;2023-08-06T00:54:45;19.20;88.80
65582;DHT22;52231;40.090;18.348;2023-08-06T00:57:14;19.20;88.90
65582;DHT22;52231;40.090;18.348;2023-08-06T00:59:42;19.20;89.00
65582;DHT22;52231;40.090;18.348;2023-08-06T01:02:10;19.20;89.20
65582;DHT22;52231;40.090;18.348;2023-08-06T01:04:38;19.20;89.30
65582;DHT22;52231;40.090;18.348;2023-08-06T01:07:37;19.20;89.30
65582;DHT22;52231;40.090;18.348;2023-08-06T01:13:16;19.20;89.50
65582;DHT22;52231;40.090;18.348;2023-08-06T01:15:48;19.20;89.60
65582;DHT22;52231;40.090;18.348;2023-08-06T01:18:18;19.10;89.70
65582;DHT22;52231;40.090;18.348;2023-08-06T01:20:46;19.20;89.80
65582;DHT22;52231;40.090;18.348;2023-08-06T01:23:14;19.20;89.70
65582;DHT22;52231;40.090;18.348;2023-08-06T01:25:56;19.20;89.90
65582;DHT22;52231;40.090;18.348;2023-08-06T01:28:54;19.20;89.70
65582;DHT22;52231;40.090;18.348;2023-08-06T01:31:31;19.20;89.60
65582;DHT22;52231;40.090;18.348;2023-08-06T01:34:01;19.20;89.70
65582;DHT22;52231;40.090;18.348;2023-08-06T01:36:30;19.30;89.70
65582;DHT22;52231;40.090;18.348;2023-08-06T01:39:00;19.20;89.60
65582;DHT22;52231;40.090;18.348;2023-08-06T01:41:28;19.20;89.50
65582;DHT22;52231;40.090;18.348;2023-08-06T01:43:57;19.20;89.60
65582;DHT22;52231;40.090;18.348;2023-08-06T01:46:25;19.20;89.60
65582;DHT22;52231;40.090;18.348;2023-08-06T01:48:53;19.20;89.60
65582;DHT22;52231;40.090;18.348;2023-08-06T01:51:22;19.20;89.40
65582;DHT22;52231;40.090;18.348;2023-08-06T01:53:50;19.10;89.40
65582;DHT22;52231;40.090;18.348;2023-08-06T01:56:18;19.10;89.50
65582;DHT22;52231;40.090;18.348;2023-08-06T01:58:46;19.10;89.50
65582;DHT22;52231;40.090;18.348;2023-08-06T02:01:15;19.10;89.70
65582;DHT22;52231;40.090;18.348;2023-08-06T02:03:43;19.10;89.70
65582;DHT22;52231;40.090;18.348;2023-08-06T02:06:11;19.10;89.70
65582;DHT22;52231;40.090;18.348;2023-08-06T02:08:39;19.10;89.70
65582;DHT22;52231;40.090;18.348;2023-08-06T02:11:07;19.10;89.80
65582;DHT22;52231;40.090;18.348;2023-08-06T02:13:35;19.00;89.90
65582;DHT22;52231;40.090;18.348;2023-08-06T02:16:03;19.10;89.90
65582;DHT22;52231;40.090;18.348;2023-08-06T02:18:36;19.00;90.00
65582;DHT22;52231;40.090;18.348;2023-08-06T02:21:04;18.90;90.00
65582;DHT22;52231;40.090;18.348;2023-08-06T02:23:32;18.90;90.10
65582;DHT22;52231;40.090;18.348;2023-08-06T02:26:19;18.90;90.10
65582;DHT22;52231;40.090;18.348;2023-08-06T02:28:48;18.90;90.20
65582;DHT22;52231;40.090;18.348;2023-08-06T02:31:16;18.90;90.20
65582;DHT22;52231;40.090;18.348;2023-08-06T02:33:44;18.80;90.20
65582;DHT22;52231;40.090;18.348;2023-08-06T02:36:12;18.80;90.20
65582;DHT22;52231;40.090;18.348;2023-08-06T02:38:40;18.80;90.00
65582;DHT22;52231;40.090;18.348;2023-08-06T02:41:08;18.80;89.80
65582;DHT22;52231;40.090;18.348;2023-08-06T02:43:36;18.80;89.70
65582;DHT22;52231;40.090;18.348;2023-08-06T02:46:05;18.80;89.70
65582;DHT22;52231;40.090;18.348;2023-08-06T02:48:34;18.80;89.80
65582;DHT22;52231;40.090;18.348;2023-08-06T02:51:02;18.80;89.60
65582;DHT22;52231;40.090;18.348;2023-08-06T02:53:32;18.80;89.50
65582;DHT22;52231;40.090;18.348;2023-08-06T02:56:04;18.70;89.10
65582;DHT22;52231;40.090;18.348;2023-08-06T02:58:50;18.70;89.10
65582;DHT22;52231;40.090;18.348;2023-08-06T03:01:28;18.70;89.10
65582;DHT22;52231;40.090;18.348;2023-08-06T03:04:04;18.70;89.00
65582;DHT22;52231;40.090;18.348;2023-08-06T03:06:37;18.70;89.10
65582;DHT22;52231;40.090;18.348;2023-08-06T03:09:05;18.70;89.00
65582;DHT22;52231;40.090;18.348;2023-08-06T03:11:33;18.70;89.00
65582;DHT22;52231;40.090;18.348;2023-08-06T03:14:06;18.60;88.90
65582;DHT22;52231;40.090;18.348;2023-08-06T03:16:35;18.60;88.90
65582;DHT22;52231;40.090;18.348;2023-08-06T03:19:03;18.60;88.90
65582;DHT22;52231;40.090;18.348;2023-08-06T03:21:31;18.60;88.60
65582;DHT22;52231;40.090;18.348;2023-08-06T03:24:00;18.50;88.00
65582;DHT22;52231;40.090;18.348;2023-08-06T03:26:30;18.50;87.70
65582;DHT22;52231;40.090;18.348;2023-08-06T03:28:59;18.60;87.40
65582;DHT22;52231;40.090;18.348;2023-08-06T03:31:30;18.50;86.90
65582;DHT22;52231;40.090;18.348;2023-08-06T03:33:59;18.60;86.80
65582;DHT22;52231;40.090;18.348;2023-08-06T03:36:30;18.50;86.70
65582;DHT22;52231;40.090;18.348;2023-08-06T03:38:59;18.50;86.70
65582;DHT22;52231;40.090;18.348;2023-08-06T03:41:31;18.40;87.00
65582;DHT22;52231;40.090;18.348;2023-08-06T03:44:18;18.40;86.50
65582;DHT22;52231;40.090;18.348;2023-08-06T03:46:46;18.30;86.30
65582;DHT22;52231;40.090;18.348;2023-08-06T03:49:14;18.30;86.20
65582;DHT22;52231;40.090;18.348;2023-08-06T03:51:42;18.30;86.30
65582;DHT22;52231;40.090;18.348;2023-08-06T03:54:10;18.30;85.90
65582;DHT22;52231;40.090;18.348;2023-08-06T03:56:38;18.30;85.90
65582;DHT22;52231;40.090;18.348;2023-08-06T03:59:06;18.30;85.20
65582;DHT22;52231;40.090;18.348;2023-08-06T04:01:35;18.30;85.00
65582;DHT22;52231;40.090;18.348;2023-08-06T04:04:03;18.30;84.60
65582;DHT22;52231;40.090;18.348;2023-08-06T04:06:31;18.30;84.60
65582;DHT22;52231;40.090;18.348;2023-08-06T04:08:59;18.30;84.60
65582;DHT22;52231;40.090;18.348;2023-08-06T04:11:27;18.40;85.10
65582;DHT22;52231;40.090;18.348;2023-08-06T04:13:55;18.30;85.20
65582;DHT22;52231;40.090;18.348;2023-08-06T04:16:24;18.30;84.90
65582;DHT22;52231;40.090;18.348;2023-08-06T04:18:54;18.40;84.50
65582;DHT22;52231;40.090;18.348;2023-08-06T04:21:23;18.40;84.20
65582;DHT22;52231;40.090;18.348;2023-08-06T04:23:51;18.50;83.90
65582;DHT22;52231;40.090;18.348;2023-08-06T04:26:20;18.60;83.80
65582;DHT22;52231;40.090;18.348;2023-08-06T04:28:48;18.70;83.30
65582;DHT22;52231;40.090;18.348;2023-08-06T04:31:16;18.80;82.90
65582;DHT22;52231;40.090;18.348;2023-08-06T04:33:45;18.80;82.40
65582;DHT22;52231;40.090;18.348;2023-08-06T04:36:15;19.00;82.10
65582;DHT22;52231;40.090;18.348;2023-08-06T04:38:45;19.20;81.50
65582;DHT22;52231;40.090;18.348;2023-08-06T04:41:16;19.40;80.80
65582;DHT22;52231;40.090;18.348;2023-08-06T04:43:45;19.80;80.10
65582;DHT22;52231;40.090;18.348;2023-08-06T04:46:13;20.20;78.10
65582;DHT22;52231;40.090;18.348;2023-08-06T04:48:42;20.60;76.50
65582;DHT22;52231;40.090;18.348;2023-08-06T04:51:10;21.00;75.30
65582;DHT22;52231;40.090;18.348;2023-08-06T04:53:38;21.30;74.40
65582;DHT22;52231;40.090;18.348;2023-08-06T04:56:06;21.60;74.00
65582;DHT22;52231;40.090;18.348;2023-08-06T04:58:34;21.80;72.10
65582;DHT22;52231;40.090;18.348;2023-08-06T05:01:02;21.90;71.70
65582;DHT22;52231;40.090;18.348;2023-08-06T05:03:30;22.10;71.00
65582;DHT22;52231;40.090;18.348;2023-08-06T05:05:58;22.30;70.80
65582;DHT22;52231;40.090;18.348;2023-08-06T05:08:26;22.40;69.20
65582;DHT22;52231;40.090;18.348;2023-08-06T05:10:54;22.60;68.80
65582;DHT22;52231;40.090;18.348;2023-08-06T05:13:22;22.70;67.70
65582;DHT22;52231;40.090;18.348;2023-08-06T05:15:52;22.80;67.50
65582;DHT22;52231;40.090;18.348;2023-08-06T05:18:21;23.00;67.00
65582;DHT22;52231;40.090;18.348;2023-08-06T05:20:49;23.10;65.90
65582;DHT22;52231;40.090;18.348;2023-08-06T05:23:17;23.30;65.60
65582;DHT22;52231;40.090;18.348;2023-08-06T05:25:45;23.40;64.20
65582;DHT22;52231;40.090;18.348;2023-08-06T05:28:13;23.60;63.50
65582;DHT22;52231;40.090;18.348;2023-08-06T05:30:41;23.70;62.10
65582;DHT22;52231;40.090;18.348;2023-08-06T05:33:09;23.60;62.90
65582;DHT22;52231;40.090;18.348;2023-08-06T05:35:37;23.70;62.30
65582;DHT22;52231;40.090;18.348;2023-08-06T05:38:05;24.10;63.00
65582;DHT22;52231;40.090;18.348;2023-08-06T05:40:34;24.20;61.40
65582;DHT22;52231;40.090;18.348;2023-08-06T05:43:02;24.30;61.50
65582;DHT22;52231;40.090;18.348;2023-08-06T05:45:30;24.40;61.60
65582;DHT22;52231;40.090;18.348;2023-08-06T05:47:58;24.60;59.80
65582;DHT22;52231;40.090;18.348;2023-08-06T05:50:26;24.70;59.80
65582;DHT22;52231;40.090;18.348;2023-08-06T05:52:54;24.90;58.90
65582;DHT22;52231;40.090;18.348;2023-08-06T05:55:21;24.90;58.40
65582;DHT22;52231;40.090;18.348;2023-08-06T05:57:49;25.00;59.50
65582;DHT22;52231;40.090;18.348;2023-08-06T06:00:21;25.20;59.00
65582;DHT22;52231;40.090;18.348;2023-08-06T06:02:49;25.40;58.80
65582;DHT22;52231;40.090;18.348;2023-08-06T06:05:17;25.70;57.70
65582;DHT22;52231;40.090;18.348;2023-08-06T06:07:45;25.80;57.50
65582;DHT22;52231;40.090;18.348;2023-08-06T06:10:13;25.90;57.00
65582;DHT22;52231;40.090;18.348;2023-08-06T06:12:42;26.00;55.80
65582;DHT22;52231;40.090;18.348;2023-08-06T06:15:10;25.90;55.80
65582;DHT22;52231;40.090;18.348;2023-08-06T06:17:38;25.90;55.40
65582;DHT22;52231;40.090;18.348;2023-08-06T06:20:07;25.90;55.40
65582;DHT22;52231;40.090;18.348;2023-08-06T06:22:35;26.00;55.50
65582;DHT22;52231;40.090;18.348;2023-08-06T06:25:04;26.20;55.60
65582;DHT22;52231;40.090;18.348;2023-08-06T06:27:32;26.60;54.90
65582;DHT22;52231;40.090;18.348;2023-08-06T06:30:00;26.90;53.70
65582;DHT22;52231;40.090;18.348;2023-08-06T06:32:29;27.10;52.80
65582;DHT22;52231;40.090;18.348;2023-08-06T06:34:57;27.30;52.90
65582;DHT22;52231;40.090;18.348;2023-08-06T06:37:26;27.40;51.20
65582;DHT22;52231;40.090;18.348;2023-08-06T06:39:54;27.40;51.90
65582;DHT22;52231;40.090;18.348;2023-08-06T06:42:22;27.60;52.00
65582;DHT22;52231;40.090;18.348;2023-08-06T06:44:52;27.80;51.90
65582;DHT22;52231;40.090;18.348;2023-08-06T06:47:20;27.90;50.80
65582;DHT22;52231;40.090;18.348;2023-08-06T06:49:48;27.80;50.30
65582;DHT22;52231;40.090;18.348;2023-08-06T06:52:16;27.80;49.60
65582;DHT22;52231;40.090;18.348;2023-08-06T06:54:44;27.80;50.60
65582;DHT22;52231;40.090;18.348;2023-08-06T06:57:12;27.90;49.20
65582;DHT22;52231;40.090;18.348;2023-08-06T06:59:40;27.90;49.60
65582;DHT22;52231;40.090;18.348;2023-08-06T07:02:08;28.10;49.20
65582;DHT22;52231;40.090;18.348;2023-08-06T07:04:36;28.20;49.10
65582;DHT22;52231;40.090;18.348;2023-08-06T07:07:04;28.50;47.80
65582;DHT22;52231;40.090;18.348;2023-08-06T07:09:32;28.70;47.70
65582;DHT22;52231;40.090;18.348;2023-08-06T07:12:00;28.90;47.40
65582;DHT22;52231;40.090;18.348;2023-08-06T07:14:29;29.00;46.40
65582;DHT22;52231;40.090;18.348;2023-08-06T07:16:57;28.90;46.80
65582;DHT22;52231;40.090;18.348;2023-08-06T07:19:25;28.90;46.10
65582;DHT22;52231;40.090;18.348;2023-08-06T07:21:53;28.60;46.50
65582;DHT22;52231;40.090;18.348;2023-08-06T07:24:24;28.40;46.80
65582;DHT22;52231;40.090;18.348;2023-08-06T07:26:52;28.30;47.10
65582;DHT22;52231;40.090;18.348;2023-08-06T07:29:20;28.30;46.60
65582;DHT22;52231;40.090;18.348;2023-08-06T07:31:50;28.30;47.50
65582;DHT22;52231;40.090;18.348;2023-08-06T07:34:18;28.60;46.90
65582;DHT22;52231;40.090;18.348;2023-08-06T07:36:46;28.60;46.00
65582;DHT22;52231;40.090;18.348;2023-08-06T07:39:14;28.80;46.00
65582;DHT22;52231;40.090;18.348;2023-08-06T07:41:44;29.10;45.50
65582;DHT22;52231;40.090;18.348;2023-08-06T07:44:13;29.00;45.40
65582;DHT22;52231;40.090;18.348;2023-08-06T07:46:41;29.30;45.30
65582;DHT22;52231;40.090;18.348;2023-08-06T07:49:09;29.50;44.10
65582;DHT22;52231;40.090;18.348;2023-08-06T07:51:39;29.50;44.80
65582;DHT22;52231;40.090;18.348;2023-08-06T07:54:07;29.50;43.60
65582;DHT22;52231;40.090;18.348;2023-08-06T07:56:35;29.50;44.00
65582;DHT22;52231;40.090;18.348;2023-08-06T07:59:07;29.80;43.40
65582;DHT22;52231;40.090;18.348;2023-08-06T08:01:35;29.50;43.30
65582;DHT22;52231;40.090;18.348;2023-08-06T08:04:04;29.80;43.50
65582;DHT22;52231;40.090;18.348;2023-08-06T08:06:33;29.90;42.40
65582;DHT22;52231;40.090;18.348;2023-08-06T08:09:01;30.10;42.00
65582;DHT22;52231;40.090;18.348;2023-08-06T08:11:30;30.30;42.20
65582;DHT22;52231;40.090;18.348;2023-08-06T08:13:58;30.60;41.90
65582;DHT22;52231;40.090;18.348;2023-08-06T08:16:26;30.80;41.70
65582;DHT22;52231;40.090;18.348;2023-08-06T08:18:54;30.90;40.40
65582;DHT22;52231;40.090;18.348;2023-08-06T08:21:23;31.30;40.00
65582;DHT22;52231;40.090;18.348;2023-08-06T08:23:52;31.10;40.20
65582;DHT22;52231;40.090;18.348;2023-08-06T08:26:20;31.20;39.40
65582;DHT22;52231;40.090;18.348;2023-08-06T08:28:48;31.40;39.10
65582;DHT22;52231;40.090;18.348;2023-08-06T08:31:17;31.60;38.60
65582;DHT22;52231;40.090;18.348;2023-08-06T08:33:48;31.80;38.20
65582;DHT22;52231;40.090;18.348;2023-08-06T08:36:17;32.00;38.10
65582;DHT22;52231;40.090;18.348;2023-08-06T08:38:45;31.70;37.50
65582;DHT22;52231;40.090;18.348;2023-08-06T08:41:15;31.60;37.90
65582;DHT22;52231;40.090;18.348;2023-08-06T08:43:44;31.70;38.40
65582;DHT22;52231;40.090;18.348;2023-08-06T08:46:13;31.90;38.60
65582;DHT22;52231;40.090;18.348;2023-08-06T08:48:42;31.90;38.60
65582;DHT22;52231;40.090;18.348;2023-08-06T08:51:12;31.80;38.20
65582;DHT22;52231;40.090;18.348;2023-08-06T08:53:42;32.30;38.00
65582;DHT22;52231;40.090;18.348;2023-08-06T08:56:13;32.30;37.00
65582;DHT22;52231;40.090;18.348;2023-08-06T08:58:43;32.30;37.20
65582;DHT22;52231;40.090;18.348;2023-08-06T09:01:11;32.50;36.40
65582;DHT22;52231;40.090;18.348;2023-08-06T09:03:41;32.80;36.00
65582;DHT22;52231;40.090;18.348;2023-08-06T09:06:11;32.90;35.80
65582;DHT22;52231;40.090;18.348;2023-08-06T09:08:53;32.80;36.00
65582;DHT22;52231;40.090;18.348;2023-08-06T09:11:25;32.80;35.90
65582;DHT22;52231;40.090;18.348;2023-08-06T09:13:55;32.90;35.70
65582;DHT22;52231;40.090;18.348;2023-08-06T09:16:24;32.90;34.80
65582;DHT22;52231;40.090;18.348;2023-08-06T09:19:07;33.00;34.70
65582;DHT22;52231;40.090;18.348;2023-08-06T09:21:56;33.10;35.00
65582;DHT22;52231;40.090;18.348;2023-08-06T09:24:26;33.40;35.00
65582;DHT22;52231;40.090;18.348;2023-08-06T09:26:56;33.60;33.50
65582;DHT22;52231;40.090;18.348;2023-08-06T09:29:25;33.70;33.80
65582;DHT22;52231;40.090;18.348;2023-08-06T09:31:59;33.60;34.50
65582;DHT22;52231;40.090;18.348;2023-08-06T09:34:27;34.00;33.60
65582;DHT22;52231;40.090;18.348;2023-08-06T09:36:56;34.10;33.40
65582;DHT22;52231;40.090;18.348;2023-08-06T09:39:29;34.10;32.70
65582;DHT22;52231;40.090;18.348;2023-08-06T09:42:00;34.10;32.60
65582;DHT22;52231;40.090;18.348;2023-08-06T09:44:31;34.20;33.30
65582;DHT22;52231;40.090;18.348;2023-08-06T09:47:02;34.30;31.80
65582;DHT22;52231;40.090;18.348;2023-08-06T09:52:02;34.10;31.40
65582;DHT22;52231;40.090;18.348;2023-08-06T09:54:32;34.00;31.20
65582;DHT22;52231;40.090;18.348;2023-08-06T09:57:03;33.70;31.40
65582;DHT22;52231;40.090;18.348;2023-08-06T09:59:33;33.50;31.50
65582;DHT22;52231;40.090;18.348;2023-08-06T10:02:03;33.50;31.10
65582;DHT22;52231;40.090;18.348;2023-08-06T10:04:35;33.60;31.20
65582;DHT22;52231;40.090;18.348;2023-08-06T10:07:09;33.30;31.90
65582;DHT22;52231;40.090;18.348;2023-08-06T10:09:37;33.30;31.40
65582;DHT22;52231;40.090;18.348;2023-08-06T10:12:06;33.30;31.90
65582;DHT22;52231;40.090;18.348;2023-08-06T10:14:37;33.30;31.90
65582;DHT22;52231;40.090;18.348;2023-08-06T10:17:05;33.90;31.20
65582;DHT22;52231;40.090;18.348;2023-08-06T10:19:34;34.40;30.80
65582;DHT22;52231;40.090;18.348;2023-08-06T10:22:28;34.20;29.70
65582;DHT22;52231;40.090;18.348;2023-08-06T10:25:01;34.20;29.30
65582;DHT22;52231;40.090;18.348;2023-08-06T10:27:52;33.90;29.70
65582;DHT22;52231;40.090;18.348;2023-08-06T10:30:29;33.50;29.60
65582;DHT22;52231;40.090;18.348;2023-08-06T10:33:03;33.50;29.00
65582;DHT22;52231;40.090;18.348;2023-08-06T10:38:09;34.30;29.30
65582;DHT22;52231;40.090;18.348;2023-08-06T10:43:36;34.80;29.10
65582;DHT22;52231;40.090;18.348;2023-08-06T10:46:30;34.80;28.80
65582;DHT22;52231;40.090;18.348;2023-08-06T10:48:58;34.90;28.60
65582;DHT22;52231;40.090;18.348;2023-08-06T10:51:27;34.90;28.00
65582;DHT22;52231;40.090;18.348;2023-08-06T10:53:56;34.90;28.10
65582;DHT22;52231;40.090;18.348;2023-08-06T10:56:26;35.00;28.30
65582;DHT22;52231;40.090;18.348;2023-08-06T10:58:56;34.90;28.50
65582;DHT22;52231;40.090;18.348;2023-08-06T11:01:29;35.30;28.60
65582;DHT22;52231;40.090;18.348;2023-08-06T11:04:02;35.40;28.20
65582;DHT22;52231;40.090;18.348;2023-08-06T11:06:31;35.50;28.20
65582;DHT22;52231;40.090;18.348;2023-08-06T11:09:02;35.80;27.60
65582;DHT22;52231;40.090;18.348;2023-08-06T11:11:31;36.00;27.40
65582;DHT22;52231;40.090;18.348;2023-08-06T11:14:00;35.40;27.50
65582;DHT22;52231;40.090;18.348;2023-08-06T11:16:29;35.00;28.10
65582;DHT22;52231;40.090;18.348;2023-08-06T11:18:58;35.20;28.80
65582;DHT22;52231;40.090;18.348;2023-08-06T11:21:28;35.50;29.10
65582;DHT22;52231;40.090;18.348;2023-08-06T11:23:57;35.80;28.00
65582;DHT22;52231;40.090;18.348;2023-08-06T11:26:26;35.80;27.80
65582;DHT22;52231;40.090;18.348;2023-08-06T11:28:58;35.90;27.70
65582;DHT22;52231;40.090;18.348;2023-08-06T11:31:26;36.10;28.40
65582;DHT22;52231;40.090;18.348;2023-08-06T11:33:55;36.10;28.10
65582;DHT22;52231;40.090;18.348;2023-08-06T11:36:41;36.00;28.40
65582;DHT22;52231;40.090;18.348;2023-08-06T11:39:10;36.00;28.30
65582;DHT22;52231;40.090;18.348;2023-08-06T11:41:38;35.90;27.90
65582;DHT22;52231;40.090;18.348;2023-08-06T11:44:10;35.70;28.00
65582;DHT22;52231;40.090;18.348;2023-08-06T11:46:54;35.80;28.20
65582;DHT22;52231;40.090;18.348;2023-08-06T11:49:48;35.80;28.30
65582;DHT22;52231;40.090;18.348;2023-08-06T11:52:39;35.90;27.70
65582;DHT22;52231;40.090;18.348;2023-08-06T11:55:09;36.30;27.50
65582;DHT22;52231;40.090;18.348;2023-08-06T11:57:46;36.40;26.80
65582;DHT22;52231;40.090;18.348;2023-08-06T12:00:15;36.20;26.90
65582;DHT22;52231;40.090;18.348;2023-08-06T12:02:46;36.10;27.60
65582;DHT22;52231;40.090;18.348;2023-08-06T12:05:16;35.90;26.90
65582;DHT22;52231;40.090;18.348;2023-08-06T12:07:45;35.90;27.20
65582;DHT22;52231;40.090;18.348;2023-08-06T12:10:15;35.70;27.30
65582;DHT22;52231;40.090;18.348;2023-08-06T12:12:43;35.40;27.50
65582;DHT22;52231;40.090;18.348;2023-08-06T12:15:12;35.50;27.90
65582;DHT22;52231;40.090;18.348;2023-08-06T12:17:40;35.60;28.10
65582;DHT22;52231;40.090;18.348;2023-08-06T12:20:10;35.80;28.10
65582;DHT22;52231;40.090;18.348;2023-08-06T12:22:39;35.50;28.10
65582;DHT22;52231;40.090;18.348;2023-08-06T12:25:09;35.60;27.90
65582;DHT22;52231;40.090;18.348;2023-08-06T12:27:42;35.80;27.70
65582;DHT22;52231;40.090;18.348;2023-08-06T12:30:11;35.90;27.50
65582;DHT22;52231;40.090;18.348;2023-08-06T12:32:40;35.80;27.70
65582;DHT22;52231;40.090;18.348;2023-08-06T12:35:08;36.20;27.80
65582;DHT22;52231;40.090;18.348;2023-08-06T12:37:36;36.00;27.40
65582;DHT22;52231;40.090;18.348;2023-08-06T12:40:06;35.80;28.10
65582;DHT22;52231;40.090;18.348;2023-08-06T12:42:46;35.50;28.50
65582;DHT22;52231;40.090;18.348;2023-08-06T12:45:14;35.80;28.60
65582;DHT22;52231;40.090;18.348;2023-08-06T12:47:42;35.80;28.40
65582;DHT22;52231;40.090;18.348;2023-08-06T12:50:10;35.80;28.70
65582;DHT22;52231;40.090;18.348;2023-08-06T12:52:38;35.90;28.50
65582;DHT22;52231;40.090;18.348;2023-08-06T12:55:07;36.20;28.70
65582;DHT22;52231;40.090;18.348;2023-08-06T12:57:35;36.00;29.20
65582;DHT22;52231;40.090;18.348;2023-08-06T13:00:10;36.10;28.50
65582;DHT22;52231;40.090;18.348;2023-08-06T13:02:38;35.50;29.10
65582;DHT22;52231;40.090;18.348;2023-08-06T13:05:06;35.10;29.90
65582;DHT22;52231;40.090;18.348;2023-08-06T13:07:34;35.40;30.30
65582;DHT22;52231;40.090;18.348;2023-08-06T13:10:03;35.50;29.50
65582;DHT22;52231;40.090;18.348;2023-08-06T13:12:31;35.50;29.90
65582;DHT22;52231;40.090;18.348;2023-08-06T13:14:59;35.90;29.50
65582;DHT22;52231;40.090;18.348;2023-08-06T13:17:28;35.80;29.30
65582;DHT22;52231;40.090;18.348;2023-08-06T13:19:56;35.30;30.20
65582;DHT22;52231;40.090;18.348;2023-08-06T13:22:24;35.40;30.60
65582;DHT22;52231;40.090;18.348;2023-08-06T13:24:52;35.10;30.90
65582;DHT22;52231;40.090;18.348;2023-08-06T13:27:20;34.90;31.80
65582;DHT22;52231;40.090;18.348;2023-08-06T13:29:48;35.20;31.70
65582;DHT22;52231;40.090;18.348;2023-08-06T13:32:17;35.50;31.10
65582;DHT22;52231;40.090;18.348;2023-08-06T13:34:45;35.50;31.20
65582;DHT22;52231;40.090;18.348;2023-08-06T13:37:13;35.80;30.10
65582;DHT22;52231;40.090;18.348;2023-08-06T13:39:41;35.60;30.00
65582;DHT22;52231;40.090;18.348;2023-08-06T13:42:09;35.50;31.60
65582;DHT22;52231;40.090;18.348;2023-08-06T13:44:37;35.30;32.40
65582;DHT22;52231;40.090;18.348;2023-08-06T13:47:05;35.40;31.70
65582;DHT22;52231;40.090;18.348;2023-08-06T13:49:34;35.20;32.50
65582;DHT22;52231;40.090;18.348;2023-08-06T13:52:02;35.30;31.80
65582;DHT22;52231;40.090;18.348;2023-08-06T13:54:38;35.50;31.90
65582;DHT22;52231;40.090;18.348;2023-08-06T13:57:06;35.10;33.00
65582;DHT22;52231;40.090;18.348;2023-08-06T13:59:34;34.80;33.10
65582;DHT22;52231;40.090;18.348;2023-08-06T14:02:02;34.90;33.40
65582;DHT22;52231;40.090;18.348;2023-08-06T14:04:30;35.00;33.80
65582;DHT22;52231;40.090;18.348;2023-08-06T14:06:59;34.90;32.20
65582;DHT22;52231;40.090;18.348;2023-08-06T14:09:27;34.30;32.90
65582;DHT22;52231;40.090;18.348;2023-08-06T14:11:55;34.00;33.10
65582;DHT22;52231;40.090;18.348;2023-08-06T14:14:23;33.90;34.40
65582;DHT22;52231;40.090;18.348;2023-08-06T14:16:54;33.90;35.00
65582;DHT22;52231;40.090;18.348;2023-08-06T14:19:22;34.10;34.80
65582;DHT22;52231;40.090;18.348;2023-08-06T14:21:51;34.20;34.20
65582;DHT22;52231;40.090;18.348;2023-08-06T14:24:19;34.30;34.00
65582;DHT22;52231;40.090;18.348;2023-08-06T14:26:47;34.20;34.50
65582;DHT22;52231;40.090;18.348;2023-08-06T14:29:15;34.10;34.90
65582;DHT22;52231;40.090;18.348;2023-08-06T14:31:43;34.10;34.90
65582;DHT22;52231;40.090;18.348;2023-08-06T14:34:12;33.90;34.80
65582;DHT22;52231;40.090;18.348;2023-08-06T14:36:40;33.60;35.30
65582;DHT22;52231;40.090;18.348;2023-08-06T14:39:08;33.30;35.90
65582;DHT22;52231;40.090;18.348;2023-08-06T14:41:36;33.10;36.80
65582;DHT22;52231;40.090;18.348;2023-08-06T14:44:04;33.00;37.10
65582;DHT22;52231;40.090;18.348;2023-08-06T14:46:32;32.90;37.60
65582;DHT22;52231;40.090;18.348;2023-08-06T14:49:00;32.90;37.30
65582;DHT22;52231;40.090;18.348;2023-08-06T14:51:28;32.80;37.40
65582;DHT22;52231;40.090;18.348;2023-08-06T14:53:56;32.40;38.30
65582;DHT22;52231;40.090;18.348;2023-08-06T14:56:24;32.50;39.10
65582;DHT22;52231;40.090;18.348;2023-08-06T14:58:52;32.40;40.10
65582;DHT22;52231;40.090;18.348;2023-08-06T15:01:20;32.40;40.20
65582;DHT22;52231;40.090;18.348;2023-08-06T15:03:48;32.30;40.50
65582;DHT22;52231;40.090;18.348;2023-08-06T15:06:17;32.30;40.40
65582;DHT22;52231;40.090;18.348;2023-08-06T15:08:45;32.30;41.30
65582;DHT22;52231;40.090;18.348;2023-08-06T15:11:14;32.20;42.20
65582;DHT22;52231;40.090;18.348;2023-08-06T15:13:42;32.10;42.60
65582;DHT22;52231;40.090;18.348;2023-08-06T15:16:10;31.80;42.90
65582;DHT22;52231;40.090;18.348;2023-08-06T15:18:39;31.60;43.40
65582;DHT22;52231;40.090;18.348;2023-08-06T15:21:07;31.30;44.10
65582;DHT22;52231;40.090;18.348;2023-08-06T15:23:35;31.20;44.60
65582;DHT22;52231;40.090;18.348;2023-08-06T15:26:04;31.10;45.30
65582;DHT22;52231;40.090;18.348;2023-08-06T15:28:32;30.90;46.30
65582;DHT22;52231;40.090;18.348;2023-08-06T15:31:01;30.90;47.10
65582;DHT22;52231;40.090;18.348;2023-08-06T15:33:32;30.60;47.80
65582;DHT22;52231;40.090;18.348;2023-08-06T15:36:00;30.50;48.20
65582;DHT22;52231;40.090;18.348;2023-08-06T15:38:29;30.60;48.20
65582;DHT22;52231;40.090;18.348;2023-08-06T15:40:57;30.70;47.50